sensor_id;sensor_type;location;lat;lon;timestamp;P1;durP1;ratioP1;P2;durP2;ratioP2
13204;SDS011;6667;52.634;9.226;2023-12-20T00:01:09;3.97;;;2.30;;
13204;SDS011;6667;52.634;9.226;2023-12-20T00:03:36;9.50;;;3.07;;
13204;SDS011;6667;52.634;9.226;2023-12-20T00:06:02;3.60;;;2.17;;
13204;SDS011;6667;52.634;9.226;2023-12-20T00:08:29;9.87;;;2.47;;
13204;SDS011;6667;52.634;9.226;2023-12-20T00:10:56;8.40;;;2.33;;
13204;SDS011;6667;52.634;9.226;2023-12-20T00:13:24;8.83;;;2.30;;
13204;SDS011;6667;52.634;9.226;2023-12-20T00:15:50;6.30;;;2.47;;
13204;SDS011;6667;52.634;9.226;2023-12-20T00:18:17;6.03;;;2.10;;
13204;SDS011;6667;52.634;9.226;2023-12-20T00:20:43;9.73;;;2.47;;
13204;SDS011;6667;52.634;9.226;2023-12-20T00:23:10;10.43;;;2.93;;
13204;SDS011;6667;52.634;9.226;2023-12-20T00:25:37;4.93;;;2.00;;
13204;SDS011;6667;52.634;9.226;2023-12-20T00:28:04;8.47;;;2.27;;
13204;SDS011;6667;52.634;9.226;2023-12-20T00:30:31;6.60;;;2.03;;
13204;SDS011;6667;52.634;9.226;2023-12-20T00:32:58;12.27;;;2.73;;
13204;SDS011;6667;52.634;9.226;2023-12-20T00:35:25;5.93;;;2.53;;
13204;SDS011;6667;52.634;9.226;2023-12-20T00:37:51;7.63;;;2.67;;
13204;SDS011;6667;52.634;9.226;2023-12-20T00:40:18;7.43;;;2.50;;
13204;SDS011;6667;52.634;9.226;2023-12-20T00:42:45;6.20;;;2.00;;
13204;SDS011;6667;52.634;9.226;2023-12-20T00:45:12;8.00;;;2.67;;
13204;SDS011;6667;52.634;9.226;2023-12-20T00:47:41;4.93;;;2.53;;
13204;SDS011;6667;52.634;9.226;2023-12-20T00:50:08;4.97;;;2.30;;
13204;SDS011;6667;52.634;9.226;2023-12-20T00:52:35;4.10;;;2.13;;
13204;SDS011;6667;52.634;9.226;2023-12-20T00:55:01;5.87;;;3.20;;
13204;SDS011;6667;52.634;9.226;2023-12-20T00:57:28;8.13;;;3.00;;
13204;SDS011;6667;52.634;9.226;2023-12-20T00:59:56;5.50;;;2.37;;
13204;SDS011;6667;52.634;9.226;2023-12-20T01:02:22;5.03;;;2.13;;
13204;SDS011;6667;52.634;9.226;2023-12-20T01:04:50;6.50;;;2.20;;
13204;SDS011;6667;52.634;9.226;2023-12-20T01:07:17;4.17;;;2.20;;
13204;SDS011;6667;52.634;9.226;2023-12-20T01:09:44;5.07;;;2.30;;
13204;SDS011;6667;52.634;9.226;2023-12-20T01:12:10;12.30;;;2.70;;
13204;SDS011;6667;52.634;9.226;2023-12-20T01:14:37;13.73;;;2.47;;
13204;SDS011;6667;52.634;9.226;2023-12-20T01:17:04;4.73;;;1.97;;
13204;SDS011;6667;52.634;9.226;2023-12-20T01:19:31;7.33;;;2.57;;
13204;SDS011;6667;52.634;9.226;2023-12-20T01:21:59;5.27;;;1.90;;
13204;SDS011;6667;52.634;9.226;2023-12-20T01:24:25;7.40;;;2.53;;
13204;SDS011;6667;52.634;9.226;2023-12-20T01:26:52;7.03;;;2.43;;
13204;SDS011;6667;52.634;9.226;2023-12-20T01:29:18;8.20;;;3.13;;
13204;SDS011;6667;52.634;9.226;2023-12-20T01:31:45;4.27;;;2.33;;
13204;SDS011;6667;52.634;9.226;2023-12-20T01:34:12;10.33;;;2.80;;
13204;SDS011;6667;52.634;9.226;2023-12-20T01:36:38;4.90;;;2.47;;
13204;SDS011;6667;52.634;9.226;2023-12-20T01:39:06;7.60;;;2.73;;
13204;SDS011;6667;52.634;9.226;2023-12-20T01:41:33;7.20;;;2.60;;
13204;SDS011;6667;52.634;9.226;2023-12-20T01:43:59;8.03;;;2.43;;
13204;SDS011;6667;52.634;9.226;2023-12-20T01:46:26;5.23;;;2.37;;
13204;SDS011;6667;52.634;9.226;2023-12-20T01:48:53;20.53;;;3.07;;
13204;SDS011;6667;52.634;9.226;2023-12-20T01:51:20;6.50;;;2.30;;
13204;SDS011;6667;52.634;9.226;2023-12-20T01:53:47;8.60;;;2.73;;
13204;SDS011;6667;52.634;9.226;2023-12-20T01:56:15;8.43;;;2.43;;
13204;SDS011;6667;52.634;9.226;2023-12-20T01:58:43;8.57;;;2.10;;
13204;SDS011;6667;52.634;9.226;2023-12-20T02:01:11;6.20;;;2.67;;
13204;SDS011;6667;52.634;9.226;2023-12-20T02:03:38;8.37;;;3.60;;
13204;SDS011;6667;52.634;9.226;2023-12-20T02:06:05;7.10;;;2.33;;
13204;SDS011;6667;52.634;9.226;2023-12-20T02:08:33;8.63;;;2.77;;
13204;SDS011;6667;52.634;9.226;2023-12-20T02:10:58;5.57;;;2.27;;
13204;SDS011;6667;52.634;9.226;2023-12-20T02:13:27;11.53;;;2.20;;
13204;SDS011;6667;52.634;9.226;2023-12-20T02:15:54;6.43;;;1.83;;
13204;SDS011;6667;52.634;9.226;2023-12-20T02:18:20;4.23;;;1.90;;
13204;SDS011;6667;52.634;9.226;2023-12-20T02:20:48;6.83;;;2.23;;
13204;SDS011;6667;52.634;9.226;2023-12-20T02:23:16;7.80;;;2.20;;
13204;SDS011;6667;52.634;9.226;2023-12-20T02:25:42;4.93;;;2.50;;
13204;SDS011;6667;52.634;9.226;2023-12-20T02:28:09;9.53;;;2.17;;
13204;SDS011;6667;52.634;9.226;2023-12-20T02:30:36;9.30;;;2.40;;
13204;SDS011;6667;52.634;9.226;2023-12-20T02:33:02;6.40;;;2.40;;
13204;SDS011;6667;52.634;9.226;2023-12-20T02:35:32;8.57;;;2.90;;
13204;SDS011;6667;52.634;9.226;2023-12-20T02:37:58;3.83;;;2.00;;
13204;SDS011;6667;52.634;9.226;2023-12-20T02:40:28;8.80;;;2.20;;
13204;SDS011;6667;52.634;9.226;2023-12-20T02:42:54;7.37;;;2.77;;
13204;SDS011;6667;52.634;9.226;2023-12-20T02:45:21;9.53;;;2.50;;
13204;SDS011;6667;52.634;9.226;2023-12-20T02:47:47;8.57;;;2.70;;
13204;SDS011;6667;52.634;9.226;2023-12-20T02:50:14;6.50;;;2.50;;
13204;SDS011;6667;52.634;9.226;2023-12-20T02:52:42;3.83;;;2.50;;
13204;SDS011;6667;52.634;9.226;2023-12-20T02:55:10;6.17;;;2.53;;
13204;SDS011;6667;52.634;9.226;2023-12-20T02:57:38;4.70;;;2.23;;
13204;SDS011;6667;52.634;9.226;2023-12-20T03:00:07;9.90;;;2.57;;
13204;SDS011;6667;52.634;9.226;2023-12-20T03:02:34;7.57;;;2.40;;
13204;SDS011;6667;52.634;9.226;2023-12-20T03:05:01;12.73;;;2.50;;
13204;SDS011;6667;52.634;9.226;2023-12-20T03:07:28;6.40;;;2.60;;
13204;SDS011;6667;52.634;9.226;2023-12-20T03:09:54;5.67;;;2.70;;
13204;SDS011;6667;52.634;9.226;2023-12-20T03:12:21;5.93;;;2.50;;
13204;SDS011;6667;52.634;9.226;2023-12-20T03:14:49;7.33;;;2.53;;
13204;SDS011;6667;52.634;9.226;2023-12-20T03:17:15;5.73;;;2.13;;
13204;SDS011;6667;52.634;9.226;2023-12-20T03:19:42;8.13;;;3.40;;
13204;SDS011;6667;52.634;9.226;2023-12-20T03:22:08;8.47;;;2.70;;
13204;SDS011;6667;52.634;9.226;2023-12-20T03:24:35;6.10;;;3.07;;
13204;SDS011;6667;52.634;9.226;2023-12-20T03:27:02;5.20;;;1.97;;
13204;SDS011;6667;52.634;9.226;2023-12-20T03:29:29;7.50;;;2.20;;
13204;SDS011;6667;52.634;9.226;2023-12-20T03:31:57;4.83;;;2.33;;
13204;SDS011;6667;52.634;9.226;2023-12-20T03:34:23;7.70;;;3.00;;
13204;SDS011;6667;52.634;9.226;2023-12-20T03:36:50;7.57;;;3.40;;
13204;SDS011;6667;52.634;9.226;2023-12-20T03:39:17;9.70;;;2.10;;
13204;SDS011;6667;52.634;9.226;2023-12-20T03:41:43;6.60;;;2.23;;
13204;SDS011;6667;52.634;9.226;2023-12-20T03:44:10;11.00;;;2.53;;
13204;SDS011;6667;52.634;9.226;2023-12-20T03:46:36;6.33;;;2.67;;
13204;SDS011;6667;52.634;9.226;2023-12-20T03:49:04;7.67;;;2.73;;
13204;SDS011;6667;52.634;9.226;2023-12-20T03:51:31;9.57;;;2.50;;
13204;SDS011;6667;52.634;9.226;2023-12-20T03:53:57;7.67;;;2.67;;
13204;SDS011;6667;52.634;9.226;2023-12-20T03:56:24;8.00;;;2.77;;
13204;SDS011;6667;52.634;9.226;2023-12-20T03:58:51;6.73;;;2.93;;
13204;SDS011;6667;52.634;9.226;2023-12-20T04:01:17;6.77;;;2.63;;
13204;SDS011;6667;52.634;9.226;2023-12-20T04:03:44;9.47;;;2.93;;
13204;SDS011;6667;52.634;9.226;2023-12-20T04:06:17;7.93;;;3.60;;
13204;SDS011;6667;52.634;9.226;2023-12-20T04:08:43;10.07;;;3.30;;
13204;SDS011;6667;52.634;9.226;2023-12-20T04:11:10;11.47;;;3.07;;
13204;SDS011;6667;52.634;9.226;2023-12-20T04:13:37;9.97;;;3.63;;
13204;SDS011;6667;52.634;9.226;2023-12-20T04:16:03;7.30;;;2.60;;
13204;SDS011;6667;52.634;9.226;2023-12-20T04:18:30;7.87;;;3.27;;
13204;SDS011;6667;52.634;9.226;2023-12-20T04:20:57;9.17;;;3.40;;
13204;SDS011;6667;52.634;9.226;2023-12-20T04:23:25;10.70;;;2.90;;
13204;SDS011;6667;52.634;9.226;2023-12-20T04:25:51;8.23;;;2.80;;
13204;SDS011;6667;52.634;9.226;2023-12-20T04:28:18;9.37;;;3.17;;
13204;SDS011;6667;52.634;9.226;2023-12-20T04:30:45;8.20;;;3.00;;
13204;SDS011;6667;52.634;9.226;2023-12-20T04:33:11;9.43;;;3.47;;
13204;SDS011;6667;52.634;9.226;2023-12-20T04:35:38;12.23;;;3.57;;
13204;SDS011;6667;52.634;9.226;2023-12-20T04:38:05;8.07;;;2.83;;
13204;SDS011;6667;52.634;9.226;2023-12-20T04:40:34;4.77;;;2.93;;
13204;SDS011;6667;52.634;9.226;2023-12-20T04:43:00;7.07;;;2.93;;
13204;SDS011;6667;52.634;9.226;2023-12-20T04:45:27;11.93;;;3.50;;
13204;SDS011;6667;52.634;9.226;2023-12-20T04:47:54;9.33;;;4.23;;
13204;SDS011;6667;52.634;9.226;2023-12-20T04:50:21;10.57;;;3.70;;
13204;SDS011;6667;52.634;9.226;2023-12-20T04:52:48;8.63;;;3.57;;
13204;SDS011;6667;52.634;9.226;2023-12-20T04:55:14;8.47;;;3.57;;
13204;SDS011;6667;52.634;9.226;2023-12-20T04:57:42;6.77;;;3.27;;
13204;SDS011;6667;52.634;9.226;2023-12-20T05:00:09;8.43;;;3.30;;
13204;SDS011;6667;52.634;9.226;2023-12-20T05:02:37;9.83;;;3.20;;
13204;SDS011;6667;52.634;9.226;2023-12-20T05:05:04;10.03;;;4.00;;
13204;SDS011;6667;52.634;9.226;2023-12-20T05:07:30;10.77;;;3.30;;
13204;SDS011;6667;52.634;9.226;2023-12-20T05:09:57;9.37;;;3.30;;
13204;SDS011;6667;52.634;9.226;2023-12-20T05:12:24;14.70;;;3.77;;
13204;SDS011;6667;52.634;9.226;2023-12-20T05:14:52;10.13;;;3.37;;
13204;SDS011;6667;52.634;9.226;2023-12-20T05:17:19;9.13;;;3.43;;
13204;SDS011;6667;52.634;9.226;2023-12-20T05:19:46;9.17;;;3.33;;
13204;SDS011;6667;52.634;9.226;2023-12-20T05:22:12;10.17;;;3.70;;
13204;SDS011;6667;52.634;9.226;2023-12-20T05:24:39;12.00;;;3.70;;
13204;SDS011;6667;52.634;9.226;2023-12-20T05:27:05;11.53;;;3.73;;
13204;SDS011;6667;52.634;9.226;2023-12-20T05:29:32;9.97;;;3.93;;
13204;SDS011;6667;52.634;9.226;2023-12-20T05:32:00;11.43;;;4.13;;
13204;SDS011;6667;52.634;9.226;2023-12-20T05:34:28;10.73;;;4.00;;
13204;SDS011;6667;52.634;9.226;2023-12-20T05:36:54;6.43;;;3.70;;
13204;SDS011;6667;52.634;9.226;2023-12-20T05:39:21;16.20;;;4.17;;
13204;SDS011;6667;52.634;9.226;2023-12-20T05:41:47;16.20;;;3.67;;
13204;SDS011;6667;52.634;9.226;2023-12-20T05:44:14;10.60;;;3.40;;
13204;SDS011;6667;52.634;9.226;2023-12-20T05:46:41;14.30;;;4.27;;
13204;SDS011;6667;52.634;9.226;2023-12-20T05:49:09;12.13;;;3.73;;
13204;SDS011;6667;52.634;9.226;2023-12-20T05:51:35;11.93;;;3.53;;
13204;SDS011;6667;52.634;9.226;2023-12-20T05:54:02;16.80;;;4.50;;
13204;SDS011;6667;52.634;9.226;2023-12-20T05:56:29;8.73;;;3.87;;
13204;SDS011;6667;52.634;9.226;2023-12-20T05:58:55;9.30;;;3.30;;
13204;SDS011;6667;52.634;9.226;2023-12-20T06:01:23;10.30;;;3.83;;
13204;SDS011;6667;52.634;9.226;2023-12-20T06:03:50;14.43;;;3.43;;
13204;SDS011;6667;52.634;9.226;2023-12-20T06:06:18;11.97;;;3.57;;
13204;SDS011;6667;52.634;9.226;2023-12-20T06:08:44;8.27;;;3.53;;
13204;SDS011;6667;52.634;9.226;2023-12-20T06:11:11;13.53;;;3.50;;
13204;SDS011;6667;52.634;9.226;2023-12-20T06:13:38;11.67;;;3.93;;
13204;SDS011;6667;52.634;9.226;2023-12-20T06:16:05;13.97;;;4.03;;
13204;SDS011;6667;52.634;9.226;2023-12-20T06:18:32;12.83;;;4.17;;
13204;SDS011;6667;52.634;9.226;2023-12-20T06:20:59;12.33;;;3.93;;
13204;SDS011;6667;52.634;9.226;2023-12-20T06:23:28;9.93;;;4.47;;
13204;SDS011;6667;52.634;9.226;2023-12-20T06:25:55;15.00;;;5.17;;
13204;SDS011;6667;52.634;9.226;2023-12-20T06:28:22;11.07;;;4.33;;
13204;SDS011;6667;52.634;9.226;2023-12-20T06:30:49;11.70;;;3.63;;
13204;SDS011;6667;52.634;9.226;2023-12-20T06:33:17;7.70;;;4.03;;
13204;SDS011;6667;52.634;9.226;2023-12-20T06:35:46;12.00;;;4.07;;
13204;SDS011;6667;52.634;9.226;2023-12-20T06:38:13;7.90;;;3.80;;
13204;SDS011;6667;52.634;9.226;2023-12-20T06:40:40;9.83;;;4.20;;
13204;SDS011;6667;52.634;9.226;2023-12-20T06:43:07;12.17;;;3.00;;
13204;SDS011;6667;52.634;9.226;2023-12-20T06:45:34;17.67;;;4.30;;
13204;SDS011;6667;52.634;9.226;2023-12-20T06:48:01;16.07;;;4.57;;
13204;SDS011;6667;52.634;9.226;2023-12-20T06:50:27;11.43;;;3.40;;
13204;SDS011;6667;52.634;9.226;2023-12-20T06:52:54;12.87;;;4.00;;
13204;SDS011;6667;52.634;9.226;2023-12-20T06:55:20;12.87;;;4.60;;
13204;SDS011;6667;52.634;9.226;2023-12-20T06:57:49;12.03;;;3.87;;
13204;SDS011;6667;52.634;9.226;2023-12-20T07:00:16;16.60;;;3.57;;
13204;SDS011;6667;52.634;9.226;2023-12-20T07:02:44;9.80;;;3.33;;
13204;SDS011;6667;52.634;9.226;2023-12-20T07:05:12;13.90;;;4.17;;
13204;SDS011;6667;52.634;9.226;2023-12-20T07:07:42;14.30;;;4.30;;
13204;SDS011;6667;52.634;9.226;2023-12-20T07:10:08;13.23;;;4.87;;
13204;SDS011;6667;52.634;9.226;2023-12-20T07:12:35;12.67;;;4.03;;
13204;SDS011;6667;52.634;9.226;2023-12-20T07:15:04;15.97;;;4.23;;
13204;SDS011;6667;52.634;9.226;2023-12-20T07:17:32;9.93;;;3.83;;
13204;SDS011;6667;52.634;9.226;2023-12-20T07:19:59;10.13;;;4.27;;
13204;SDS011;6667;52.634;9.226;2023-12-20T07:22:28;12.57;;;3.87;;
13204;SDS011;6667;52.634;9.226;2023-12-20T07:24:56;10.93;;;3.80;;
13204;SDS011;6667;52.634;9.226;2023-12-20T07:27:23;15.20;;;4.60;;
13204;SDS011;6667;52.634;9.226;2023-12-20T07:29:49;11.43;;;4.03;;
13204;SDS011;6667;52.634;9.226;2023-12-20T07:32:17;16.30;;;3.90;;
13204;SDS011;6667;52.634;9.226;2023-12-20T07:34:44;12.20;;;4.17;;
13204;SDS011;6667;52.634;9.226;2023-12-20T07:37:11;8.27;;;2.93;;
13204;SDS011;6667;52.634;9.226;2023-12-20T07:39:38;12.87;;;4.43;;
13204;SDS011;6667;52.634;9.226;2023-12-20T07:42:05;10.90;;;3.87;;
13204;SDS011;6667;52.634;9.226;2023-12-20T07:44:32;11.93;;;4.00;;
13204;SDS011;6667;52.634;9.226;2023-12-20T07:46:59;17.87;;;4.23;;
13204;SDS011;6667;52.634;9.226;2023-12-20T07:49:27;9.73;;;3.70;;
13204;SDS011;6667;52.634;9.226;2023-12-20T07:51:54;7.67;;;3.73;;
13204;SDS011;6667;52.634;9.226;2023-12-20T07:54:20;15.33;;;4.70;;
13204;SDS011;6667;52.634;9.226;2023-12-20T07:56:47;11.47;;;4.13;;
13204;SDS011;6667;52.634;9.226;2023-12-20T07:59:15;10.07;;;3.47;;
13204;SDS011;6667;52.634;9.226;2023-12-20T08:01:41;10.87;;;4.03;;
13204;SDS011;6667;52.634;9.226;2023-12-20T08:04:08;19.73;;;5.03;;
13204;SDS011;6667;52.634;9.226;2023-12-20T08:06:36;9.83;;;3.37;;
13204;SDS011;6667;52.634;9.226;2023-12-20T08:09:03;14.27;;;4.93;;
13204;SDS011;6667;52.634;9.226;2023-12-20T08:11:30;18.17;;;4.83;;
13204;SDS011;6667;52.634;9.226;2023-12-20T08:13:57;16.73;;;4.13;;
13204;SDS011;6667;52.634;9.226;2023-12-20T08:16:23;14.80;;;4.23;;
13204;SDS011;6667;52.634;9.226;2023-12-20T08:18:51;13.47;;;3.87;;
13204;SDS011;6667;52.634;9.226;2023-12-20T08:21:17;9.43;;;4.30;;
13204;SDS011;6667;52.634;9.226;2023-12-20T08:23:46;11.17;;;4.17;;
13204;SDS011;6667;52.634;9.226;2023-12-20T08:26:14;13.50;;;5.07;;
13204;SDS011;6667;52.634;9.226;2023-12-20T08:28:45;11.83;;;3.50;;
13204;SDS011;6667;52.634;9.226;2023-12-20T08:31:13;8.67;;;4.00;;
13204;SDS011;6667;52.634;9.226;2023-12-20T08:33:40;14.57;;;4.10;;
13204;SDS011;6667;52.634;9.226;2023-12-20T08:36:07;8.57;;;4.40;;
13204;SDS011;6667;52.634;9.226;2023-12-20T08:38:33;12.67;;;3.40;;
13204;SDS011;6667;52.634;9.226;2023-12-20T08:41:01;17.67;;;3.83;;
13204;SDS011;6667;52.634;9.226;2023-12-20T08:43:30;13.43;;;3.20;;
13204;SDS011;6667;52.634;9.226;2023-12-20T08:45:56;14.47;;;4.50;;
13204;SDS011;6667;52.634;9.226;2023-12-20T08:48:23;16.90;;;5.07;;
13204;SDS011;6667;52.634;9.226;2023-12-20T08:50:50;12.67;;;5.63;;
13204;SDS011;6667;52.634;9.226;2023-12-20T08:53:17;13.60;;;4.73;;
13204;SDS011;6667;52.634;9.226;2023-12-20T08:55:44;13.30;;;4.03;;
13204;SDS011;6667;52.634;9.226;2023-12-20T08:58:12;18.63;;;4.43;;
13204;SDS011;6667;52.634;9.226;2023-12-20T09:00:39;21.83;;;4.57;;
13204;SDS011;6667;52.634;9.226;2023-12-20T09:03:06;16.27;;;5.07;;
13204;SDS011;6667;52.634;9.226;2023-12-20T09:05:33;15.13;;;4.03;;
13204;SDS011;6667;52.634;9.226;2023-12-20T09:07:59;9.03;;;4.10;;
13204;SDS011;6667;52.634;9.226;2023-12-20T09:10:26;13.23;;;3.90;;
13204;SDS011;6667;52.634;9.226;2023-12-20T09:12:53;12.10;;;4.47;;
13204;SDS011;6667;52.634;9.226;2023-12-20T09:15:22;14.63;;;4.37;;
13204;SDS011;6667;52.634;9.226;2023-12-20T09:17:49;17.13;;;4.53;;
13204;SDS011;6667;52.634;9.226;2023-12-20T09:20:15;12.23;;;4.70;;
13204;SDS011;6667;52.634;9.226;2023-12-20T09:22:42;12.37;;;4.90;;
13204;SDS011;6667;52.634;9.226;2023-12-20T09:25:09;12.73;;;3.57;;
13204;SDS011;6667;52.634;9.226;2023-12-20T09:27:37;14.30;;;4.10;;
13204;SDS011;6667;52.634;9.226;2023-12-20T09:30:04;10.50;;;3.80;;
13204;SDS011;6667;52.634;9.226;2023-12-20T09:32:33;11.33;;;4.00;;
13204;SDS011;6667;52.634;9.226;2023-12-20T09:35:00;12.57;;;4.33;;
13204;SDS011;6667;52.634;9.226;2023-12-20T09:37:27;18.43;;;4.20;;
13204;SDS011;6667;52.634;9.226;2023-12-20T09:39:54;9.00;;;3.73;;
13204;SDS011;6667;52.634;9.226;2023-12-20T09:42:21;11.73;;;3.50;;
13204;SDS011;6667;52.634;9.226;2023-12-20T09:44:50;12.00;;;3.70;;
13204;SDS011;6667;52.634;9.226;2023-12-20T09:47:18;10.40;;;3.10;;
13204;SDS011;6667;52.634;9.226;2023-12-20T09:49:50;11.53;;;3.90;;
13204;SDS011;6667;52.634;9.226;2023-12-20T09:52:17;9.33;;;3.07;;
13204;SDS011;6667;52.634;9.226;2023-12-20T09:54:44;12.97;;;4.03;;
13204;SDS011;6667;52.634;9.226;2023-12-20T09:57:15;11.40;;;3.13;;
13204;SDS011;6667;52.634;9.226;2023-12-20T09:59:42;11.57;;;2.83;;
13204;SDS011;6667;52.634;9.226;2023-12-20T10:02:09;7.70;;;3.47;;
13204;SDS011;6667;52.634;9.226;2023-12-20T10:04:39;11.97;;;3.17;;
13204;SDS011;6667;52.634;9.226;2023-12-20T10:07:13;17.17;;;4.13;;
13204;SDS011;6667;52.634;9.226;2023-12-20T10:09:39;12.13;;;3.37;;
13204;SDS011;6667;52.634;9.226;2023-12-20T10:12:07;7.87;;;3.40;;
13204;SDS011;6667;52.634;9.226;2023-12-20T10:14:34;9.00;;;3.40;;
13204;SDS011;6667;52.634;9.226;2023-12-20T10:17:02;8.30;;;2.93;;
13204;SDS011;6667;52.634;9.226;2023-12-20T10:19:29;10.23;;;3.17;;
13204;SDS011;6667;52.634;9.226;2023-12-20T10:21:56;11.97;;;3.60;;
13204;SDS011;6667;52.634;9.226;2023-12-20T10:24:24;14.37;;;3.37;;
13204;SDS011;6667;52.634;9.226;2023-12-20T10:27:01;12.17;;;3.90;;
13204;SDS011;6667;52.634;9.226;2023-12-20T10:29:30;10.10;;;3.53;;
13204;SDS011;6667;52.634;9.226;2023-12-20T10:31:58;6.83;;;3.00;;
13204;SDS011;6667;52.634;9.226;2023-12-20T10:34:24;10.20;;;3.07;;
13204;SDS011;6667;52.634;9.226;2023-12-20T10:36:51;9.90;;;2.83;;
13204;SDS011;6667;52.634;9.226;2023-12-20T10:39:18;8.57;;;3.07;;
13204;SDS011;6667;52.634;9.226;2023-12-20T10:41:47;8.07;;;2.93;;
13204;SDS011;6667;52.634;9.226;2023-12-20T10:44:14;8.50;;;2.73;;
13204;SDS011;6667;52.634;9.226;2023-12-20T10:46:41;6.90;;;2.70;;
13204;SDS011;6667;52.634;9.226;2023-12-20T10:49:15;14.50;;;4.27;;
13204;SDS011;6667;52.634;9.226;2023-12-20T10:51:43;8.17;;;2.57;;
13204;SDS011;6667;52.634;9.226;2023-12-20T10:54:11;6.47;;;1.97;;
13204;SDS011;6667;52.634;9.226;2023-12-20T10:56:38;7.50;;;1.73;;
13204;SDS011;6667;52.634;9.226;2023-12-20T10:59:06;5.17;;;2.07;;
13204;SDS011;6667;52.634;9.226;2023-12-20T11:01:36;7.17;;;1.53;;
13204;SDS011;6667;52.634;9.226;2023-12-20T11:04:06;6.97;;;1.50;;
13204;SDS011;6667;52.634;9.226;2023-12-20T11:06:41;4.37;;;1.63;;
13204;SDS011;6667;52.634;9.226;2023-12-20T11:09:13;4.80;;;1.93;;
13204;SDS011;6667;52.634;9.226;2023-12-20T11:11:50;3.30;;;1.30;;
13204;SDS011;6667;52.634;9.226;2023-12-20T11:14:27;6.73;;;2.03;;
13204;SDS011;6667;52.634;9.226;2023-12-20T11:17:07;6.17;;;1.73;;
13204;SDS011;6667;52.634;9.226;2023-12-20T11:19:36;4.30;;;2.10;;
13204;SDS011;6667;52.634;9.226;2023-12-20T11:22:04;5.70;;;1.60;;
13204;SDS011;6667;52.634;9.226;2023-12-20T11:24:32;5.20;;;1.70;;
13204;SDS011;6667;52.634;9.226;2023-12-20T11:26:59;3.83;;;1.50;;
13204;SDS011;6667;52.634;9.226;2023-12-20T11:29:34;3.87;;;1.40;;
13204;SDS011;6667;52.634;9.226;2023-12-20T11:32:02;3.07;;;2.20;;
13204;SDS011;6667;52.634;9.226;2023-12-20T11:34:31;2.13;;;1.20;;
13204;SDS011;6667;52.634;9.226;2023-12-20T11:36:59;2.57;;;1.30;;
13204;SDS011;6667;52.634;9.226;2023-12-20T11:39:26;4.50;;;1.70;;
13204;SDS011;6667;52.634;9.226;2023-12-20T11:41:54;3.53;;;1.00;;
13204;SDS011;6667;52.634;9.226;2023-12-20T11:44:22;2.80;;;1.07;;
13204;SDS011;6667;52.634;9.226;2023-12-20T11:46:52;2.93;;;1.30;;
13204;SDS011;6667;52.634;9.226;2023-12-20T11:49:22;4.00;;;0.87;;
13204;SDS011;6667;52.634;9.226;2023-12-20T11:51:49;2.53;;;1.10;;
13204;SDS011;6667;52.634;9.226;2023-12-20T11:54:16;5.77;;;1.00;;
13204;SDS011;6667;52.634;9.226;2023-12-20T11:56:43;5.00;;;1.00;;
13204;SDS011;6667;52.634;9.226;2023-12-20T11:59:10;5.23;;;0.77;;
13204;SDS011;6667;52.634;9.226;2023-12-20T12:01:37;2.03;;;0.73;;
13204;SDS011;6667;52.634;9.226;2023-12-20T12:04:05;0.80;;;0.53;;
13204;SDS011;6667;52.634;9.226;2023-12-20T12:06:32;1.20;;;0.67;;
13204;SDS011;6667;52.634;9.226;2023-12-20T12:08:59;1.53;;;0.90;;
13204;SDS011;6667;52.634;9.226;2023-12-20T12:11:25;3.33;;;0.80;;
13204;SDS011;6667;52.634;9.226;2023-12-20T12:13:52;1.73;;;0.87;;
13204;SDS011;6667;52.634;9.226;2023-12-20T12:16:19;2.33;;;0.77;;
13204;SDS011;6667;52.634;9.226;2023-12-20T12:18:54;3.63;;;1.17;;
13204;SDS011;6667;52.634;9.226;2023-12-20T12:21:22;1.83;;;0.97;;
13204;SDS011;6667;52.634;9.226;2023-12-20T12:23:49;3.50;;;1.10;;
13204;SDS011;6667;52.634;9.226;2023-12-20T12:26:16;5.03;;;0.97;;
13204;SDS011;6667;52.634;9.226;2023-12-20T12:28:43;2.27;;;1.00;;
13204;SDS011;6667;52.634;9.226;2023-12-20T12:31:12;4.43;;;0.80;;
13204;SDS011;6667;52.634;9.226;2023-12-20T12:33:40;2.53;;;0.77;;
13204;SDS011;6667;52.634;9.226;2023-12-20T12:36:10;0.80;;;0.70;;
13204;SDS011;6667;52.634;9.226;2023-12-20T12:38:42;5.60;;;1.33;;
13204;SDS011;6667;52.634;9.226;2023-12-20T12:41:09;2.87;;;0.97;;
13204;SDS011;6667;52.634;9.226;2023-12-20T12:43:38;6.17;;;1.47;;
13204;SDS011;6667;52.634;9.226;2023-12-20T12:46:05;2.67;;;1.07;;
13204;SDS011;6667;52.634;9.226;2023-12-20T12:48:32;5.03;;;1.10;;
13204;SDS011;6667;52.634;9.226;2023-12-20T12:50:58;4.43;;;1.40;;
13204;SDS011;6667;52.634;9.226;2023-12-20T12:53:25;1.37;;;0.83;;
13204;SDS011;6667;52.634;9.226;2023-12-20T12:55:54;5.10;;;0.93;;
13204;SDS011;6667;52.634;9.226;2023-12-20T12:58:20;3.47;;;1.27;;
13204;SDS011;6667;52.634;9.226;2023-12-20T13:00:47;5.23;;;1.00;;
13204;SDS011;6667;52.634;9.226;2023-12-20T13:03:14;4.17;;;1.17;;
13204;SDS011;6667;52.634;9.226;2023-12-20T13:05:40;4.30;;;1.10;;
13204;SDS011;6667;52.634;9.226;2023-12-20T13:08:08;5.67;;;1.23;;
13204;SDS011;6667;52.634;9.226;2023-12-20T13:10:36;1.97;;;1.30;;
13204;SDS011;6667;52.634;9.226;2023-12-20T13:13:05;3.47;;;1.73;;
13204;SDS011;6667;52.634;9.226;2023-12-20T13:15:31;4.80;;;1.20;;
13204;SDS011;6667;52.634;9.226;2023-12-20T13:17:58;6.63;;;1.20;;
13204;SDS011;6667;52.634;9.226;2023-12-20T13:20:25;2.87;;;1.20;;
13204;SDS011;6667;52.634;9.226;2023-12-20T13:22:51;1.93;;;1.20;;
13204;SDS011;6667;52.634;9.226;2023-12-20T13:25:18;4.53;;;1.13;;
13204;SDS011;6667;52.634;9.226;2023-12-20T13:27:44;5.63;;;1.90;;
13204;SDS011;6667;52.634;9.226;2023-12-20T13:30:13;6.20;;;1.37;;
13204;SDS011;6667;52.634;9.226;2023-12-20T13:32:39;4.27;;;1.73;;
13204;SDS011;6667;52.634;9.226;2023-12-20T13:35:06;4.93;;;1.30;;
13204;SDS011;6667;52.634;9.226;2023-12-20T13:37:33;4.57;;;1.70;;
13204;SDS011;6667;52.634;9.226;2023-12-20T13:40:00;4.10;;;1.50;;
13204;SDS011;6667;52.634;9.226;2023-12-20T13:42:28;4.37;;;1.47;;
13204;SDS011;6667;52.634;9.226;2023-12-20T13:44:54;4.60;;;1.50;;
13204;SDS011;6667;52.634;9.226;2023-12-20T13:47:22;5.37;;;1.30;;
13204;SDS011;6667;52.634;9.226;2023-12-20T13:49:49;3.03;;;1.40;;
13204;SDS011;6667;52.634;9.226;2023-12-20T13:52:16;3.73;;;1.83;;
13204;SDS011;6667;52.634;9.226;2023-12-20T13:54:42;3.17;;;1.40;;
13204;SDS011;6667;52.634;9.226;2023-12-20T13:57:09;5.70;;;1.30;;
13204;SDS011;6667;52.634;9.226;2023-12-20T13:59:35;3.47;;;1.17;;
13204;SDS011;6667;52.634;9.226;2023-12-20T14:02:02;5.17;;;1.50;;
13204;SDS011;6667;52.634;9.226;2023-12-20T14:04:31;3.70;;;1.30;;
13204;SDS011;6667;52.634;9.226;2023-12-20T14:06:57;6.87;;;1.80;;
13204;SDS011;6667;52.634;9.226;2023-12-20T14:09:24;3.40;;;1.27;;
13204;SDS011;6667;52.634;9.226;2023-12-20T14:11:50;5.00;;;1.60;;
13204;SDS011;6667;52.634;9.226;2023-12-20T14:14:17;3.93;;;1.40;;
13204;SDS011;6667;52.634;9.226;2023-12-20T14:16:44;5.57;;;1.47;;
13204;SDS011;6667;52.634;9.226;2023-12-20T14:19:11;2.03;;;1.37;;
13204;SDS011;6667;52.634;9.226;2023-12-20T14:21:39;7.17;;;1.67;;
13204;SDS011;6667;52.634;9.226;2023-12-20T14:24:06;5.57;;;1.43;;
13204;SDS011;6667;52.634;9.226;2023-12-20T14:26:33;9.10;;;2.27;;
13204;SDS011;6667;52.634;9.226;2023-12-20T14:28:59;7.83;;;1.60;;
13204;SDS011;6667;52.634;9.226;2023-12-20T14:31:26;5.87;;;1.90;;
13204;SDS011;6667;52.634;9.226;2023-12-20T14:33:53;5.73;;;1.53;;
13204;SDS011;6667;52.634;9.226;2023-12-20T14:36:19;8.17;;;1.70;;
13204;SDS011;6667;52.634;9.226;2023-12-20T14:38:48;8.70;;;1.97;;
13204;SDS011;6667;52.634;9.226;2023-12-20T14:41:15;3.90;;;1.40;;
13204;SDS011;6667;52.634;9.226;2023-12-20T14:43:43;4.80;;;1.43;;
13204;SDS011;6667;52.634;9.226;2023-12-20T14:46:11;5.73;;;1.87;;
13204;SDS011;6667;52.634;9.226;2023-12-20T14:48:38;6.03;;;1.80;;
13204;SDS011;6667;52.634;9.226;2023-12-20T14:51:04;10.93;;;2.50;;
13204;SDS011;6667;52.634;9.226;2023-12-20T14:53:31;6.80;;;2.00;;
13204;SDS011;6667;52.634;9.226;2023-12-20T14:55:59;4.63;;;1.50;;
13204;SDS011;6667;52.634;9.226;2023-12-20T14:58:27;6.80;;;2.00;;